createdAt,value
2022-10-18T00:01:55.065Z,33.60
2022-10-18T00:04:58.536Z,35.75
2022-10-18T00:08:01.955Z,33.65
2022-10-18T00:11:06.136Z,32.47
2022-10-18T00:14:09.833Z,40.07
2022-10-18T00:17:13.107Z,30.33
2022-10-18T00:20:17.673Z,31.55
2022-10-18T00:23:20.947Z,34.30
2022-10-18T00:26:27.225Z,42.38
2022-10-18T00:29:30.578Z,43.30
2022-10-18T00:32:38.617Z,33.77
2022-10-18T00:35:41.968Z,30.27
2022-10-18T00:38:46.217Z,39.80
2022-10-18T00:41:50.104Z,45.03
2022-10-18T00:45:15.728Z,36.60
2022-10-18T00:48:20.615Z,36.43
2022-10-18T00:51:33.210Z,35.97
2022-10-18T00:54:39.178Z,35.00
2022-10-18T00:57:44.909Z,32.47
2022-10-18T01:00:48.452Z,38.13
2022-10-18T01:03:52.760Z,29.47
2022-10-18T01:07:04.659Z,35.08
2022-10-18T01:10:44.070Z,33.00
2022-10-18T01:14:19.902Z,32.08
2022-10-18T01:17:50.569Z,30.43
2022-10-18T01:21:15.194Z,32.77
2022-10-18T01:24:34.694Z,33.78
2022-10-18T01:28:20.250Z,28.73
2022-10-18T01:31:28.255Z,35.53
2022-10-18T01:34:36.376Z,34.20
2022-10-18T01:37:43.416Z,32.03
2022-10-18T01:40:51.339Z,35.10
2022-10-18T01:43:59.153Z,31.48
2022-10-18T01:47:04.034Z,33.58
2022-10-18T01:50:08.035Z,32.40
2022-10-18T01:53:29.838Z,38.33
2022-10-18T01:56:45.680Z,31.70
2022-10-18T02:00:13.095Z,36.65
2022-10-18T02:03:25.896Z,36.67
2022-10-18T02:06:35.625Z,32.07
2022-10-18T02:09:50.835Z,35.60
2022-10-18T02:12:56.513Z,33.70
2022-10-18T02:16:05.089Z,40.67
2022-10-18T02:19:18.365Z,43.83
2022-10-18T02:22:25.878Z,44.10
2022-10-18T02:25:32.341Z,41.13
2022-10-18T02:28:36.314Z,45.33
2022-10-18T02:31:48.741Z,48.58
2022-10-18T02:35:05.959Z,47.38
2022-10-18T02:38:11.598Z,49.50
2022-10-18T02:41:24.203Z,50.60
2022-10-18T02:44:27.591Z,92.75
2022-10-18T02:47:31.277Z,65.10
2022-10-18T02:50:36.495Z,58.05
2022-10-18T02:53:39.868Z,70.70
2022-10-18T02:56:43.162Z,55.53
2022-10-18T02:59:46.398Z,58.85
2022-10-18T03:02:49.744Z,89.10
2022-10-18T03:05:53.688Z,73.55
2022-10-18T03:08:57.080Z,89.20
2022-10-18T03:12:00.534Z,54.33
2022-10-18T03:15:04.212Z,53.92
2022-10-18T03:18:07.563Z,49.45
2022-10-18T03:21:11.222Z,50.60
2022-10-18T03:24:14.554Z,55.03
2022-10-18T03:27:17.865Z,54.07
2022-10-18T03:30:22.768Z,54.92
2022-10-18T03:33:26.172Z,56.65
2022-10-18T03:36:29.591Z,51.72
2022-10-18T03:39:33.036Z,51.57
2022-10-18T03:42:36.458Z,100.03
2022-10-18T03:45:40.590Z,92.13
2022-10-18T03:48:44.098Z,71.57
2022-10-18T03:51:47.310Z,98.30
2022-10-18T03:54:50.615Z,63.17
2022-10-18T03:57:53.922Z,57.13
2022-10-18T04:00:58.986Z,68.97
2022-10-18T04:04:02.339Z,62.72
2022-10-18T04:07:05.630Z,51.42
2022-10-18T04:10:09.322Z,50.97
2022-10-18T04:13:13.050Z,50.20
2022-10-18T04:16:16.357Z,53.97
2022-10-18T04:19:19.734Z,56.95
2022-10-18T04:22:23.134Z,57.90
2022-10-18T04:25:28.831Z,53.63
2022-10-18T04:28:33.305Z,57.60
2022-10-18T04:31:36.658Z,49.40
2022-10-18T04:34:40.099Z,51.25
2022-10-18T04:37:43.478Z,50.58
2022-10-18T04:40:48.469Z,59.67
2022-10-18T04:43:51.754Z,50.90
2022-10-18T04:46:55.116Z,56.28
2022-10-18T04:49:58.438Z,55.63
2022-10-18T04:53:01.712Z,51.35
2022-10-18T04:56:05.119Z,49.10
2022-10-18T04:59:08.359Z,43.87
2022-10-18T05:02:11.815Z,32.13
2022-10-18T05:05:15.157Z,35.10
2022-10-18T05:08:18.586Z,33.35
2022-10-18T05:11:21.982Z,41.23
2022-10-18T05:14:25.340Z,34.37
2022-10-18T05:17:28.805Z,41.83
2022-10-18T05:20:32.315Z,49.60
2022-10-18T05:23:35.728Z,53.08
2022-10-18T05:26:39.068Z,45.70
2022-10-18T05:29:42.509Z,44.70
2022-10-18T05:32:45.828Z,43.58
2022-10-18T05:35:49.168Z,39.00
2022-10-18T05:38:53.636Z,40.30
2022-10-18T05:41:58.193Z,40.03
2022-10-18T05:45:01.538Z,35.13
2022-10-18T05:48:07.551Z,29.83
2022-10-18T05:51:11.102Z,30.25
2022-10-18T05:54:14.885Z,36.05
2022-10-18T05:57:18.338Z,29.13
2022-10-18T06:00:21.671Z,53.57
2022-10-18T06:03:24.986Z,52.45
2022-10-18T06:06:28.389Z,41.50
2022-10-18T06:09:31.671Z,42.13
2022-10-18T06:12:35.127Z,39.50
2022-10-18T06:15:38.486Z,30.50
2022-10-18T06:18:42.303Z,23.05
2022-10-18T06:21:45.662Z,25.00
2022-10-18T06:24:50.905Z,20.70
2022-10-18T06:27:56.198Z,20.90
2022-10-18T06:30:59.599Z,20.37
2022-10-18T06:34:03.006Z,19.23
2022-10-18T06:37:06.402Z,19.90
2022-10-18T06:40:10.307Z,19.10
2022-10-18T06:43:20.894Z,19.00
2022-10-18T06:46:25.912Z,19.63
2022-10-18T06:49:29.227Z,17.58
2022-10-18T06:52:32.736Z,18.45
2022-10-18T06:55:36.505Z,17.45
2022-10-18T06:58:40.817Z,18.97
2022-10-18T07:01:44.713Z,19.47
2022-10-18T07:04:51.002Z,17.15
2022-10-18T07:07:56.432Z,16.90
2022-10-18T07:11:00.314Z,15.05
2022-10-18T07:14:05.268Z,18.03
2022-10-18T07:17:08.632Z,17.17
2022-10-18T07:20:12.849Z,18.38
2022-10-18T07:23:16.292Z,20.83
2022-10-18T07:26:30.850Z,18.60
2022-10-18T07:29:34.765Z,19.87
2022-10-18T07:32:38.355Z,17.50
2022-10-18T07:35:42.105Z,18.92
2022-10-18T07:38:45.406Z,22.98
2022-10-18T07:41:48.728Z,19.85
2022-10-18T07:44:52.377Z,20.40
2022-10-18T07:47:59.130Z,17.33
2022-10-18T07:51:03.479Z,22.77
2022-10-18T07:54:06.771Z,19.20
2022-10-18T07:57:10.048Z,18.90
2022-10-18T08:00:13.722Z,18.73
2022-10-18T08:03:18.509Z,18.23
2022-10-18T08:06:22.945Z,19.20
2022-10-18T08:09:26.355Z,24.67
2022-10-18T08:12:29.630Z,19.88
2022-10-18T08:15:32.841Z,19.40
2022-10-18T08:18:37.427Z,20.20
2022-10-18T08:21:40.811Z,21.77
2022-10-18T08:24:44.367Z,20.85
2022-10-18T08:27:47.651Z,20.77
2022-10-18T08:30:52.917Z,18.43
2022-10-18T08:34:00.080Z,18.73
2022-10-18T08:37:04.110Z,19.80
2022-10-18T08:40:08.122Z,21.50
2022-10-18T08:46:50.329Z,19.80
2022-10-18T08:50:06.286Z,20.77
2022-10-18T08:53:30.055Z,20.65
2022-10-18T08:56:34.656Z,18.10
2022-10-18T08:59:41.097Z,18.95
2022-10-18T09:03:03.785Z,19.73
2022-10-18T09:06:32.823Z,18.87
2022-10-18T09:10:02.934Z,21.10
2022-10-18T09:13:27.041Z,19.35
2022-10-18T09:16:45.838Z,19.88
2022-10-18T09:19:55.223Z,22.50
2022-10-18T09:23:21.212Z,20.20
2022-10-18T09:26:26.064Z,18.02
2022-10-18T09:29:45.716Z,19.33
2022-10-18T09:33:12.166Z,17.85
2022-10-18T09:36:23.182Z,19.57
2022-10-18T09:39:31.492Z,19.33
2022-10-18T09:42:42.859Z,17.30
2022-10-18T09:45:50.883Z,17.20
2022-10-18T09:49:06.092Z,17.40
2022-10-18T09:52:19.971Z,20.93
2022-10-18T09:55:32.465Z,17.43
2022-10-18T09:58:51.465Z,19.08
2022-10-18T10:01:54.992Z,17.13
2022-10-18T10:04:58.431Z,17.20
2022-10-18T10:08:02.966Z,15.97
2022-10-18T10:11:25.833Z,16.33
2022-10-18T10:14:30.825Z,16.25
2022-10-18T10:17:34.968Z,18.42
2022-10-18T10:20:53.761Z,18.17
2022-10-18T10:23:59.411Z,18.97
2022-10-18T10:27:05.940Z,14.00
2022-10-18T10:30:24.682Z,19.70
2022-10-18T10:33:38.937Z,16.20
2022-10-18T10:36:53.914Z,14.57
2022-10-18T10:40:18.359Z,14.40
2022-10-18T10:43:43.535Z,16.30
2022-10-18T10:46:49.421Z,16.10
2022-10-18T10:49:56.134Z,16.05
2022-10-18T10:52:59.821Z,14.85
2022-10-18T10:56:04.751Z,17.73
2022-10-18T10:59:15.755Z,15.80
2022-10-18T11:02:26.635Z,17.63
2022-10-18T11:05:30.386Z,13.98
2022-10-18T11:08:43.372Z,14.93
2022-10-18T11:12:02.571Z,18.07
2022-10-18T11:15:14.479Z,14.50
2022-10-18T11:18:46.483Z,15.57
2022-10-18T11:21:50.039Z,15.82
2022-10-18T11:24:53.366Z,13.43
2022-10-18T11:28:06.414Z,15.43
2022-10-18T11:31:25.152Z,14.50
2022-10-18T11:34:58.538Z,12.38
2022-10-18T11:38:07.048Z,16.38
2022-10-18T11:41:26.949Z,14.27
2022-10-18T11:44:44.035Z,12.17
2022-10-18T11:47:57.269Z,16.47
2022-10-18T11:51:14.863Z,12.95
2022-10-18T11:54:27.253Z,14.88
2022-10-18T11:57:39.238Z,17.33
2022-10-18T12:01:01.647Z,13.63
2022-10-18T12:04:17.494Z,14.53
2022-10-18T12:07:27.827Z,21.92
2022-10-18T12:10:45.826Z,13.95
2022-10-18T12:14:04.758Z,15.70
2022-10-18T12:17:50.069Z,19.57
2022-10-18T12:20:57.007Z,12.77
2022-10-18T12:24:11.589Z,17.27
2022-10-18T12:27:17.031Z,15.10
2022-10-18T12:30:52.957Z,16.67
2022-10-18T12:34:21.256Z,13.93
2022-10-18T12:37:49.833Z,15.63
2022-10-18T12:40:55.758Z,14.00
2022-10-18T12:44:19.541Z,16.48
2022-10-18T12:47:26.421Z,14.60
2022-10-18T12:50:36.742Z,13.40
2022-10-18T12:53:42.254Z,13.30
2022-10-18T12:56:46.802Z,14.55
2022-10-18T12:59:50.654Z,14.98
2022-10-18T13:03:14.296Z,19.52
2022-10-18T13:06:17.784Z,17.70
2022-10-18T13:09:21.987Z,16.90
2022-10-18T13:12:25.286Z,17.63
2022-10-18T13:15:49.266Z,19.42
2022-10-18T13:19:01.406Z,15.88
2022-10-18T13:22:32.548Z,18.60
2022-10-18T13:25:48.222Z,19.40
2022-10-18T13:28:56.947Z,16.52
2022-10-18T13:32:22.333Z,19.67
2022-10-18T13:36:06.559Z,22.05
2022-10-18T13:39:20.166Z,15.40
2022-10-18T13:42:32.880Z,15.23
2022-10-18T13:45:43.757Z,20.40
2022-10-18T13:48:49.718Z,14.82
2022-10-18T13:52:21.154Z,15.70
2022-10-18T13:55:36.327Z,19.57
2022-10-18T13:59:13.191Z,14.30
2022-10-18T14:02:50.324Z,14.23
2022-10-18T14:06:16.120Z,15.40
2022-10-18T14:12:54.744Z,17.77
2022-10-18T14:16:07.405Z,16.73
2022-10-18T14:19:43.034Z,16.17
2022-10-18T14:22:55.102Z,17.40
2022-10-18T14:26:12.575Z,13.90
2022-10-18T14:29:20.646Z,16.37
2022-10-18T14:32:28.306Z,17.07
2022-10-18T14:35:33.713Z,17.67
2022-10-18T14:38:47.336Z,16.65
2022-10-18T14:41:55.561Z,18.02
2022-10-18T14:44:59.156Z,16.00
2022-10-18T14:48:14.634Z,19.67
2022-10-18T14:51:18.431Z,16.20
2022-10-18T14:54:31.644Z,16.02
2022-10-18T14:57:37.629Z,17.95
2022-10-18T15:00:42.875Z,14.97
2022-10-18T15:03:49.173Z,15.97
2022-10-18T15:06:52.510Z,19.88
2022-10-18T15:09:59.314Z,16.98
2022-10-18T15:13:09.856Z,18.42
2022-10-18T15:16:22.618Z,15.80
2022-10-18T15:19:33.353Z,17.37
2022-10-18T15:22:36.723Z,17.23
2022-10-18T15:25:40.033Z,21.27
2022-10-18T15:29:00.446Z,22.38
2022-10-18T15:32:18.522Z,22.97
2022-10-18T15:35:32.420Z,22.67
2022-10-18T15:38:37.438Z,32.00
2022-10-18T15:41:55.801Z,26.30
2022-10-18T15:44:59.193Z,37.13
2022-10-18T15:48:02.650Z,26.53
2022-10-18T15:51:26.782Z,27.80
2022-10-18T15:54:31.032Z,28.70
2022-10-18T15:57:34.587Z,31.20
2022-10-18T16:00:38.259Z,30.88
2022-10-18T16:03:42.101Z,32.13
2022-10-18T16:06:45.479Z,29.70
2022-10-18T16:09:48.822Z,32.85
2022-10-18T16:12:52.246Z,49.47
2022-10-18T16:15:56.094Z,62.85
2022-10-18T16:18:59.828Z,63.73
2022-10-18T16:22:06.690Z,63.33
2022-10-18T16:25:10.194Z,57.75
2022-10-18T16:28:19.739Z,55.22
2022-10-18T16:31:26.444Z,52.67
2022-10-18T16:34:32.101Z,47.23
2022-10-18T16:37:35.567Z,53.20
2022-10-18T16:40:41.348Z,45.33
2022-10-18T16:43:46.714Z,50.42
2022-10-18T16:46:52.536Z,42.17
2022-10-18T16:49:57.560Z,54.33
2022-10-18T16:53:00.964Z,53.17
2022-10-18T16:56:05.709Z,46.03
2022-10-18T16:59:20.720Z,45.47
2022-10-18T17:02:24.025Z,44.13
2022-10-18T17:05:27.383Z,41.70
2022-10-18T17:08:31.437Z,45.27
2022-10-18T17:11:34.817Z,49.97
2022-10-18T17:14:38.308Z,46.50
2022-10-18T17:17:41.795Z,47.33
2022-10-18T17:20:45.851Z,53.53
2022-10-18T17:23:55.509Z,52.13
2022-10-18T17:26:58.901Z,50.13
2022-10-18T17:30:02.457Z,52.28
2022-10-18T17:33:08.607Z,50.95
2022-10-18T17:36:12.456Z,53.20
2022-10-18T17:39:15.966Z,43.13
2022-10-18T17:42:21.468Z,43.97
2022-10-18T17:45:25.034Z,41.60
2022-10-18T17:48:29.221Z,41.72
2022-10-18T17:51:32.745Z,38.60
2022-10-18T17:54:36.130Z,42.93
2022-10-18T17:57:41.376Z,37.53
2022-10-18T18:00:48.025Z,36.42
2022-10-18T18:03:57.974Z,34.67
2022-10-18T18:07:03.344Z,38.57
2022-10-18T18:10:07.052Z,37.63
2022-10-18T18:13:10.646Z,46.78
2022-10-18T18:16:20.420Z,52.08
2022-10-18T18:19:24.075Z,41.38
2022-10-18T18:22:27.475Z,92.77
2022-10-18T18:25:33.050Z,112.30
2022-10-18T18:28:37.272Z,103.85
2022-10-18T18:31:43.485Z,76.70
2022-10-18T18:34:47.138Z,65.35
2022-10-18T18:37:51.281Z,63.20
2022-10-18T18:41:16.051Z,73.63
2022-10-18T18:44:20.744Z,51.97
2022-10-18T18:47:24.159Z,40.20
2022-10-18T18:50:29.169Z,35.03
2022-10-18T18:53:32.546Z,32.83
2022-10-18T18:56:36.566Z,38.50
2022-10-18T18:59:40.012Z,33.65
2022-10-18T19:02:43.344Z,37.85
2022-10-18T19:05:46.786Z,63.88
2022-10-18T19:08:52.681Z,68.57
2022-10-18T19:11:57.180Z,55.43
2022-10-18T19:15:00.594Z,56.10
2022-10-18T19:18:05.582Z,35.88
2022-10-18T19:21:08.929Z,36.53
2022-10-18T19:24:13.351Z,35.20
2022-10-18T19:27:16.607Z,33.23
2022-10-18T19:30:20.633Z,37.83
2022-10-18T19:33:41.328Z,42.78
2022-10-18T19:36:49.853Z,42.15
2022-10-18T19:39:53.196Z,44.53
2022-10-18T19:42:56.567Z,37.00
2022-10-18T19:46:03.759Z,38.72
2022-10-18T19:49:07.153Z,37.45
2022-10-18T19:52:12.391Z,37.03
2022-10-18T19:55:15.818Z,32.77
2022-10-18T19:58:19.132Z,32.40
2022-10-18T20:01:22.826Z,32.65
2022-10-18T20:04:26.262Z,37.92
2022-10-18T20:07:30.186Z,30.75
2022-10-18T20:10:35.725Z,34.73
2022-10-18T20:13:39.802Z,32.13
2022-10-18T20:16:43.143Z,30.98
2022-10-18T20:19:47.969Z,31.40
2022-10-18T20:22:51.186Z,30.80
2022-10-18T20:26:06.716Z,51.33
2022-10-18T20:29:10.223Z,37.23
2022-10-18T20:32:14.658Z,38.78
2022-10-18T20:35:18.159Z,63.22
2022-10-18T20:38:21.438Z,59.67
2022-10-18T20:41:30.039Z,44.27
2022-10-18T20:44:34.070Z,36.73
2022-10-18T20:47:37.532Z,44.88
2022-10-18T20:50:42.299Z,49.63
2022-10-18T20:53:45.641Z,40.05
2022-10-18T20:56:48.887Z,38.10
2022-10-18T20:59:52.223Z,39.07
2022-10-18T21:02:58.862Z,43.28
2022-10-18T21:06:07.550Z,48.97
2022-10-18T21:09:15.706Z,37.72
2022-10-18T21:12:19.030Z,41.23
2022-10-18T21:15:22.338Z,41.23
2022-10-18T21:18:33.778Z,39.80
2022-10-18T21:21:37.147Z,37.15
2022-10-18T21:24:40.510Z,38.17
2022-10-18T21:27:45.179Z,46.67
2022-10-18T21:30:51.710Z,38.83
2022-10-18T21:34:00.345Z,36.60
2022-10-18T21:37:03.671Z,42.55
2022-10-18T21:40:07.762Z,38.33
2022-10-18T21:43:11.928Z,75.87
2022-10-18T21:46:17.476Z,40.87
2022-10-18T21:49:23.428Z,37.28
2022-10-18T21:52:26.719Z,64.22
2022-10-18T21:55:30.021Z,51.22
2022-10-18T21:58:34.204Z,35.67
2022-10-18T22:01:39.466Z,41.97
2022-10-18T22:04:42.793Z,40.92
2022-10-18T22:07:46.145Z,40.25
2022-10-18T22:10:49.451Z,43.40
2022-10-18T22:13:53.736Z,42.50
2022-10-18T22:16:57.138Z,46.47
2022-10-18T22:20:00.607Z,48.22
2022-10-18T22:23:03.949Z,48.10
2022-10-18T22:26:14.159Z,49.67
2022-10-18T22:29:20.012Z,53.63
2022-10-18T22:32:23.983Z,47.40
2022-10-18T22:35:31.659Z,43.97
2022-10-18T22:38:35.773Z,46.47
2022-10-18T22:41:39.068Z,39.60
2022-10-18T22:44:42.383Z,46.10
2022-10-18T22:47:45.730Z,44.10
2022-10-18T22:50:50.908Z,43.67
2022-10-18T22:53:54.228Z,40.80
2022-10-18T22:56:57.577Z,44.83
2022-10-18T23:00:01.044Z,43.33
2022-10-18T23:03:04.495Z,42.13
2022-10-18T23:06:24.498Z,39.40
2022-10-18T23:09:27.886Z,43.42
2022-10-18T23:12:31.396Z,36.83
2022-10-18T23:15:35.682Z,36.30
2022-10-18T23:21:47.557Z,35.25
2022-10-18T23:24:50.846Z,38.90
2022-10-18T23:27:54.420Z,34.08
2022-10-18T23:30:57.860Z,42.40
2022-10-18T23:34:04.499Z,37.77
2022-10-18T23:37:07.792Z,34.53
2022-10-18T23:40:13.032Z,40.20
2022-10-18T23:43:16.533Z,35.50
2022-10-18T23:46:20.291Z,35.67
2022-10-18T23:49:23.506Z,34.53
2022-10-18T23:52:26.838Z,36.03
2022-10-18T23:55:30.150Z,36.65
2022-10-18T23:58:34.706Z,33.88
